»·PEaware :: AAL427 KLAS-KSAN

AAL427 :: KLAS-KSAN

FLIGHT INFORMATION

Flight Status: Arrived
Operator:
American Airlines
More flights by this operator :: More flights under this callsign
Pilot: Chris S. (2433)
Aircraft: AIRBUS A320
(A320)
More flights by this aircraft type
Origin: KLAS McCarran Intl
United States
Destination: KSAN San Diego Intl-Lindbergh
United States
More flights between these airports :: More routes between these airports
Route: BOACH8 LVELL LUCKI1
File this flight plan on PilotEdge
Remarks:
Altitude:
(Current/Filed)
30,000ft
Speed:
(Current/Filed)
450kts
Departed: 04-May-18 02:58 PM
Arrived: 04-May-18 03:41 PM
Distance/Time
Traveled:
225nm/0:43
Distance/Time
To Go:
Arrived

Flight Plot

Page will automatically refresh every two minutes.

Flight plan parsing failed; only flown route is shown


Map Options




Map Legend


Flown Route
Filed Route
Departure Airport
Arrival Airport
Navaid (VOR, NDB)
Fix

Horizontal Profiles

Position Reports

Time Latitude Longitude Heading Altitude Ground
Speed
04-May-18 14:31 36.079989 -115.135657 22 2064ft 0kts
04-May-18 14:32 36.079989 -115.135656 22 2064ft 0kts
04-May-18 14:33 36.079989 -115.135656 22 2064ft 0kts
04-May-18 14:34 36.079989 -115.135656 22 2064ft 0kts
04-May-18 14:35 36.079989 -115.135656 22 2064ft 0kts
04-May-18 14:36 36.079989 -115.135657 22 2064ft 0kts
04-May-18 14:37 36.079989 -115.135657 22 2064ft 0kts
04-May-18 14:38 36.079989 -115.135657 22 2064ft 0kts
04-May-18 14:39 36.079989 -115.135657 22 2064ft 0kts
04-May-18 14:40 36.079989 -115.135657 22 2064ft 0kts
04-May-18 14:41 36.079989 -115.135657 22 2064ft 0kts
04-May-18 14:42 36.079989 -115.135657 22 2064ft 0kts
04-May-18 14:43 36.079575 -115.135869 23 2066ft 2kts
04-May-18 14:44 36.079478 -115.136439 132 2067ft 0kts
04-May-18 14:45 36.079529 -115.136499 135 2067ft 0kts
04-May-18 14:46 36.079529 -115.136499 135 2067ft 0kts
04-May-18 14:47 36.079528 -115.136499 135 2067ft 0kts
04-May-18 14:48 36.079528 -115.136499 135 2067ft 0kts
04-May-18 14:49 36.079528 -115.136499 135 2067ft 0kts
04-May-18 14:50 36.078625 -115.135556 133 2067ft 10kts
04-May-18 14:51 36.078284 -115.129684 90 2049ft 25kts
04-May-18 14:52 36.078290 -115.123692 90 2038ft 0kts
04-May-18 14:53 36.078290 -115.123692 90 2038ft 0kts
04-May-18 14:54 36.077665 -115.121727 130 2038ft 9kts
04-May-18 14:54 36.077429 -115.121429 140 2038ft 0kts
04-May-18 14:55 36.076408 -115.121615 267 2040ft 0kts
04-May-18 14:56 36.076408 -115.121618 267 2040ft 0kts
04-May-18 14:57 36.076661 -115.163370 271 3155ft 192kts
04-May-18 14:58 36.075073 -115.227331 259 6007ft 233kts
04-May-18 14:59 36.019013 -115.280284 199 7071ft 287kts
04-May-18 15:00 35.941931 -115.305314 184 7472ft 290kts
04-May-18 15:01 35.861093 -115.314413 180 10819ft 306kts
04-May-18 15:02 35.766688 -115.304829 173 12711ft 372kts
04-May-18 15:03 35.661121 -115.295304 181 15490ft 390kts
04-May-18 15:04 35.550704 -115.299754 181 17967ft 406kts
04-May-18 15:05 35.441232 -115.304062 181 20077ft 420kts
04-May-18 15:06 35.322711 -115.308739 181 22060ft 434kts
04-May-18 15:07 35.200785 -115.313538 181 23831ft 446kts
04-May-18 15:08 35.075328 -115.318461 182 25441ft 458kts
04-May-18 15:09 34.946940 -115.323482 182 26907ft 469kts
04-May-18 15:10 34.817536 -115.328542 182 28228ft 478kts
04-May-18 15:11 34.689736 -115.370918 201 29517ft 481kts
04-May-18 15:12 34.565333 -115.425280 201 30326ft 473kts
04-May-18 15:13 34.441452 -115.479287 201 30345ft 475kts
04-May-18 15:14 34.318450 -115.535828 209 30345ft 474kts
04-May-18 15:15 34.205331 -115.616261 207 30351ft 474kts
04-May-18 15:16 34.083645 -115.674673 202 30344ft 475kts
04-May-18 15:17 33.961171 -115.732375 202 30192ft 475kts
04-May-18 15:18 33.842684 -115.789607 203 30137ft 475kts
04-May-18 15:19 33.720804 -115.848477 202 29653ft 466kts
04-May-18 15:20 33.602942 -115.903430 202 27586ft 450kts
04-May-18 15:21 33.497910 -115.975095 233 25303ft 433kts
04-May-18 15:22 33.429953 -116.091285 236 23030ft 421kts
04-May-18 15:23 33.364115 -116.204324 235 20766ft 410kts
04-May-18 15:24 33.278200 -116.285118 205 18518ft 397kts
04-May-18 15:25 33.180802 -116.341849 205 16346ft 384kts
04-May-18 15:26 33.086792 -116.396744 205 14237ft 370kts
04-May-18 15:27 32.999057 -116.450701 218 12836ft 340kts
04-May-18 15:28 32.932224 -116.518169 219 11207ft 305kts
04-May-18 15:29 32.867953 -116.582854 220 10051ft 303kts
04-May-18 15:30 32.804265 -116.646969 220 8679ft 298kts
04-May-18 15:31 32.753291 -116.721260 241 7255ft 290kts
04-May-18 15:32 32.716023 -116.799830 242 6319ft 248kts
04-May-18 15:33 32.691070 -116.870199 251 5246ft 232kts
04-May-18 15:34 32.672832 -116.940329 281 4528ft 199kts
04-May-18 15:35 32.685806 -116.993641 287 3684ft 152kts
04-May-18 15:36 32.697071 -117.039757 287 2812ft 140kts
04-May-18 15:37 32.707752 -117.083583 286 1990ft 136kts
04-May-18 15:38 32.717759 -117.124733 286 1105ft 125kts
04-May-18 15:39 32.727210 -117.163573 287 407ft 120kts
04-May-18 15:40 32.733735 -117.191252 238 22ft 14kts
04-May-18 15:41 32.731476 -117.191201 113 19ft 2kts
04-May-18 15:42 32.731501 -117.191308 92 19ft 0kts

Navigation Log

Ident Type
Flight plan parsing failed, navigation log unavailable